Terminal Aerodrome Forecast
Issued by NWS Charleston, SC

Home | Current Version | Previous Version | Text Only | Print | Product List | Glossary On
Versions: 1 2 3 4 5 6 7 8 9 10 11 12 13 14 15 16 17 18 19 20 21 22 23 24 25 26 27
000
FTUS42 KCHS 050529
TAFCHS
TAF
KCHS 050529Z 0506/0606 23005KT P6SM SCT150
     FM051400 23008KT P6SM SCT050
     FM051800 20011KT P6SM VCTS SCT035 BKN050CB
     FM052300 20007KT P6SM FEW035 BKN120=

USA.gov is the U.S. government's official web portal to all federal, state and local government web resources and services.